Time;durP1;ratioP1;P1;durP2;ratioP2;P2;SDS_P1;SDS_P2;PMS_P1;PMS_P2;Temp;Humidity;BMP_temperature;BMP_pressure;BME280_temperature;BME280_humidity;BME280_pressure;Samples;Min_cycle;Max_cycle;Signal;HPM_P1;HPM_P2
2023/04/03 00:01:18;;;;;;;5.13;1.57;;;;;;;1.45;72.63;102340.88;5057334;28;20212;-69
2023/04/03 00:03:45;;;;;;;3.93;1.20;;;;;;;1.39;72.92;102340.03;5053974;28;20205;-68
2023/04/03 00:06:12;;;;;;;2.57;1.43;;;;;;;1.38;73.09;102337.41;5060092;28;20319;-70
2023/04/03 00:08:40;;;;;;;4.77;1.50;;;;;;;1.36;73.46;102350.53;5057353;28;20205;-69
2023/04/03 00:11:08;;;;;;;1.77;0.90;;;;;;;1.34;73.63;102348.75;5061890;28;20278;-69
2023/04/03 00:13:35;;;;;;;15.90;2.67;;;;;;;1.32;73.85;102353.13;5058593;28;20205;-70
2023/04/03 00:16:03;;;;;;;5.00;1.47;;;;;;;1.28;73.83;102352.25;5056166;28;20315;-68
2023/04/03 00:18:31;;;;;;;5.30;1.33;;;;;;;1.27;73.99;102357.47;5056381;28;20282;-69
2023/04/03 00:20:58;;;;;;;4.67;1.80;;;;;;;1.24;73.81;102352.25;5058362;28;20213;-69
2023/04/03 00:23:25;;;;;;;5.53;1.40;;;;;;;1.22;73.91;102346.13;5059986;28;20576;-70
2023/04/03 00:25:51;;;;;;;3.63;1.03;;;;;;;1.20;74.17;102351.38;5058667;28;20309;-69
2023/04/03 00:28:18;;;;;;;2.83;1.17;;;;;;;1.17;74.24;102353.97;5056810;28;20223;-70
2023/04/03 00:30:44;;;;;;;3.77;1.20;;;;;;;1.15;74.27;102366.22;5054292;28;20568;-70
2023/04/03 00:33:13;;;;;;;2.80;1.23;;;;;;;1.13;74.75;102367.97;5058839;28;20204;-70
2023/04/03 00:35:41;;;;;;;2.67;0.93;;;;;;;1.09;74.65;102365.31;5054951;28;20221;-70
2023/04/03 00:38:08;;;;;;;4.70;1.47;;;;;;;1.06;74.84;102363.59;5057669;28;20673;-69
2023/04/03 00:40:44;;;;;;;2.73;1.10;;;;;;;1.05;75.22;102374.94;5056865;28;20197;-69
2023/04/03 00:43:14;;;;;;;3.20;1.43;;;;;;;1.02;75.19;102364.44;5054098;28;20212;-70
2023/04/03 00:45:42;;;;;;;2.40;1.30;;;;;;;0.97;75.55;102371.41;5053845;28;20197;-70
2023/04/03 00:48:14;;;;;;;4.07;1.37;;;;;;;0.95;75.56;102374.03;5055129;28;20208;-70
2023/04/03 00:50:44;;;;;;;3.30;1.10;;;;;;;0.93;76.03;102377.50;5057821;28;20772;-70
2023/04/03 00:53:15;;;;;;;3.70;1.13;;;;;;;0.89;76.10;102381.88;5057208;28;20690;-69
2023/04/03 00:55:42;;;;;;;3.73;1.50;;;;;;;0.85;76.46;102377.50;5056238;28;20228;-70
2023/04/03 00:58:10;;;;;;;3.40;1.23;;;;;;;0.84;76.51;102377.47;5059344;28;20205;-69
2023/04/03 01:00:39;;;;;;;2.90;1.33;;;;;;;0.82;76.46;102379.22;5059497;28;20217;-69
2023/04/03 01:03:06;;;;;;;3.57;1.43;;;;;;;0.79;76.56;102382.69;5056850;28;20205;-69
2023/04/03 01:05:32;;;;;;;4.40;1.17;;;;;;;0.76;76.92;102376.56;5057820;28;21106;-69
2023/04/03 01:08:01;;;;;;;4.30;1.30;;;;;;;0.71;76.90;102373.94;5058369;28;21505;-69
2023/04/03 01:10:28;;;;;;;2.47;1.23;;;;;;;0.68;77.05;102372.19;5059364;28;20202;-68
2023/04/03 01:12:55;;;;;;;2.83;1.40;;;;;;;0.65;77.07;102374.78;5058936;28;20852;-70
2023/04/03 01:15:23;;;;;;;1.93;1.40;;;;;;;0.63;77.35;102378.25;5055301;28;20843;-70
2023/04/03 01:17:52;;;;;;;3.77;1.80;;;;;;;0.59;77.51;102379.09;5055227;28;20274;-72
2023/04/03 01:20:55;;;;;;;6.33;1.47;;;;;;;0.54;77.46;102379.06;5055849;28;20204;-71
2023/04/03 01:23:46;;;;;;;4.70;1.30;;;;;;;0.49;77.66;102383.44;5003350;28;20276;-69
2023/04/03 01:26:12;;;;;;;3.33;1.50;;;;;;;0.47;77.71;102384.28;5054215;28;21002;-70
2023/04/03 01:28:39;;;;;;;6.80;1.67;;;;;;;0.43;78.28;102382.50;5053994;28;20704;-69
2023/04/03 01:31:16;;;;;;;3.83;1.93;;;;;;;0.39;78.00;102392.09;5055862;28;20213;-68
2023/04/03 01:33:44;;;;;;;3.90;1.60;;;;;;;0.37;78.27;102383.34;5056574;28;20203;-68
2023/04/03 01:36:16;;;;;;;5.27;1.83;;;;;;;0.37;78.40;102388.59;5056989;28;20232;-68
2023/04/03 01:38:43;;;;;;;3.97;1.57;;;;;;;0.33;78.87;102386.84;5060272;28;20334;-68
2023/04/03 01:41:10;;;;;;;5.20;1.57;;;;;;;0.30;78.71;102387.69;5057370;28;20206;-70
2023/04/03 01:43:37;;;;;;;4.20;1.47;;;;;;;0.27;78.79;102389.41;5057755;28;20669;-68
2023/04/03 01:46:03;;;;;;;3.03;1.33;;;;;;;0.23;79.13;102388.50;5055590;28;20220;-69
2023/04/03 01:48:30;;;;;;;4.17;1.40;;;;;;;0.20;78.96;102391.09;5054769;28;20200;-70
2023/04/03 01:50:57;;;;;;;4.60;1.33;;;;;;;0.18;79.50;102391.97;5060164;28;20630;-71
2023/04/03 01:53:24;;;;;;;2.93;1.03;;;;;;;0.16;79.42;102388.47;5067725;28;20280;-69
2023/04/03 01:55:51;;;;;;;3.13;1.20;;;;;;;0.12;79.84;102400.66;5058037;28;20307;-71
2023/04/03 01:58:17;;;;;;;3.17;1.30;;;;;;;0.11;79.74;102406.75;5057829;28;20208;-70
2023/04/03 02:00:44;;;;;;;3.13;1.23;;;;;;;0.09;80.08;102405.00;5060140;28;20212;-69
2023/04/03 02:03:10;;;;;;;5.03;1.60;;;;;;;0.09;79.91;102405.00;5065216;28;20213;-68
2023/04/03 02:05:37;;;;;;;9.13;1.70;;;;;;;0.08;79.95;102405.84;5062763;28;20200;-70
2023/04/03 02:08:05;;;;;;;4.33;1.30;;;;;;;0.06;80.09;102410.19;5062358;28;20625;-69
2023/04/03 02:10:32;;;;;;;3.97;1.10;;;;;;;0.04;80.18;102409.31;5060836;28;20205;-68
2023/04/03 02:12:58;;;;;;;3.20;1.70;;;;;;;0.00;80.36;102409.28;5061009;28;20209;-68
2023/04/03 02:15:25;;;;;;;4.33;1.20;;;;;;;-0.02;80.65;102410.16;5056904;28;20237;-70
2023/04/03 02:17:53;;;;;;;6.20;1.17;;;;;;;-0.04;80.71;102409.25;5058537;28;20224;-69
2023/04/03 02:20:20;;;;;;;3.23;1.33;;;;;;;-0.06;80.69;102405.75;5056058;28;20207;-68
2023/04/03 02:22:48;;;;;;;3.03;1.30;;;;;;;-0.09;80.87;102406.59;5060516;28;20216;-71
2023/04/03 02:25:17;;;;;;;1.63;1.27;;;;;;;-0.11;80.83;102402.22;5058078;28;20783;-68
2023/04/03 02:27:44;;;;;;;5.73;1.50;;;;;;;-0.14;80.74;102410.91;5057396;28;20299;-69
2023/04/03 02:30:11;;;;;;;3.13;1.03;;;;;;;-0.16;80.87;102409.13;5054437;28;20840;-68
2023/04/03 02:32:38;;;;;;;2.67;1.23;;;;;;;-0.19;80.90;102396.94;5062844;28;20201;-69
2023/04/03 02:35:05;;;;;;;2.60;1.63;;;;;;;-0.18;80.95;102403.88;5059594;28;20216;-70
2023/04/03 02:37:32;;;;;;;3.23;1.20;;;;;;;-0.20;81.39;102410.00;5058287;28;20356;-71
2023/04/03 02:39:59;;;;;;;4.70;1.60;;;;;;;-0.21;81.26;102405.63;5059100;28;20207;-70
2023/04/03 02:42:26;;;;;;;4.67;1.27;;;;;;;-0.20;81.46;102408.25;5059894;28;20201;-70
2023/04/03 02:44:53;;;;;;;3.03;1.40;;;;;;;-0.22;81.38;102412.59;5058535;28;20201;-69
2023/04/03 02:47:20;;;;;;;4.87;1.77;;;;;;;-0.22;81.59;102414.34;5057956;28;20229;-70
2023/04/03 02:49:46;;;;;;;3.63;1.23;;;;;;;-0.23;81.98;102407.34;5060006;28;20228;-69
2023/04/03 02:52:13;;;;;;;3.20;1.10;;;;;;;-0.23;81.68;102417.81;5061353;28;20209;-70
2023/04/03 02:54:40;;;;;;;3.97;1.20;;;;;;;-0.26;81.89;102410.81;5066275;28;20770;-70
2023/04/03 02:57:08;;;;;;;5.60;1.57;;;;;;;-0.28;82.18;102412.53;5059216;28;20236;-71
2023/04/03 02:59:36;;;;;;;3.17;1.10;;;;;;;-0.28;82.16;102412.53;5054900;28;20208;-70
2023/04/03 03:02:03;;;;;;;4.83;1.50;;;;;;;-0.29;81.85;102413.41;5061368;28;20204;-71
2023/04/03 03:04:29;;;;;;;4.03;1.27;;;;;;;-0.29;81.99;102410.78;5059098;28;20208;-70
2023/04/03 03:06:56;;;;;;;2.97;1.23;;;;;;;-0.32;82.15;102415.97;5056936;28;20225;-72
2023/04/03 03:09:22;;;;;;;2.67;0.97;;;;;;;-0.32;82.30;102420.34;5059822;28;20211;-70
2023/04/03 03:11:49;;;;;;;5.30;1.60;;;;;;;-0.35;82.22;102423.78;5062201;28;20201;-68
2023/04/03 03:14:16;;;;;;;4.50;1.70;;;;;;;-0.35;82.16;102415.94;5057948;28;20209;-70
2023/04/03 03:16:44;;;;;;;1.63;1.17;;;;;;;-0.38;81.94;102429.91;5060261;28;20225;-72
2023/04/03 03:19:11;;;;;;;2.93;1.40;;;;;;;-0.39;82.18;102428.16;5060294;28;20205;-68
2023/04/03 03:21:38;;;;;;;5.37;1.57;;;;;;;-0.41;82.38;102432.50;5062994;28;20734;-69
2023/04/03 03:24:04;;;;;;;4.43;1.43;;;;;;;-0.44;81.93;102423.72;5056934;28;20234;-68
2023/04/03 03:26:31;;;;;;;4.63;1.50;;;;;;;-0.45;82.18;102429.81;5059758;28;20232;-70
2023/04/03 03:28:57;;;;;;;2.40;1.00;;;;;;;-0.47;82.24;102429.81;5060420;28;20583;-70
2023/04/03 03:31:24;;;;;;;3.23;1.60;;;;;;;-0.49;82.21;102436.75;5066889;28;20291;-69
2023/04/03 03:33:52;;;;;;;6.17;1.47;;;;;;;-0.51;82.48;102434.97;5054365;28;20205;-69
2023/04/03 03:36:18;;;;;;;4.53;1.43;;;;;;;-0.54;82.38;102443.72;5068117;28;20238;-69
2023/04/03 03:38:45;;;;;;;3.93;1.40;;;;;;;-0.55;82.31;102446.31;5056345;28;20574;-69
2023/04/03 03:41:11;;;;;;;7.83;1.30;;;;;;;-0.58;82.13;102443.66;5052843;28;20432;-71
2023/04/03 03:43:38;;;;;;;3.87;1.40;;;;;;;-0.61;82.37;102443.59;5056956;28;20217;-71
2023/04/03 03:46:04;;;;;;;5.13;1.60;;;;;;;-0.64;82.55;102448.81;5057085;28;20221;-71
2023/04/03 03:48:31;;;;;;;2.67;1.40;;;;;;;-0.67;82.56;102444.41;5060382;28;20258;-70
2023/04/03 03:50:59;;;;;;;3.57;1.27;;;;;;;-0.71;82.18;102442.59;5065827;28;20201;-68
2023/04/03 03:53:25;;;;;;;2.83;1.50;;;;;;;-0.73;82.30;102450.47;5067088;28;20433;-68
2023/04/03 03:55:52;;;;;;;3.83;1.63;;;;;;;-0.76;82.96;102444.31;5060986;28;20232;-69
2023/04/03 03:58:18;;;;;;;4.17;1.87;;;;;;;-0.78;82.53;102449.53;5058633;28;20209;-69
2023/04/03 04:00:45;;;;;;;3.27;1.80;;;;;;;-0.81;82.70;102446.88;5064357;28;21364;-69
2023/04/03 04:03:12;;;;;;;5.13;1.33;;;;;;;-0.87;82.34;102454.63;5060264;28;20216;-69
2023/04/03 04:05:39;;;;;;;4.70;1.20;;;;;;;-0.93;82.51;102457.19;5064347;28;20608;-68
2023/04/03 04:08:08;;;;;;;6.93;1.80;;;;;;;-0.97;82.62;102452.78;5062800;28;20204;-70
2023/04/03 04:10:35;;;;;;;5.43;1.97;;;;;;;-1.01;82.82;102458.81;5062279;28;20201;-70
2023/04/03 04:13:01;;;;;;;2.57;1.50;;;;;;;-1.05;82.68;102460.50;5060515;28;20201;-70
2023/04/03 04:15:28;;;;;;;4.67;1.90;;;;;;;-1.08;83.03;102454.38;5063849;28;20735;-69
2023/04/03 04:17:54;;;;;;;3.67;1.40;;;;;;;-1.11;83.06;102457.84;5057040;28;20226;-70
2023/04/03 04:20:22;;;;;;;3.47;1.93;;;;;;;-1.14;82.91;102455.16;5062105;28;20220;-69
2023/04/03 04:22:48;;;;;;;4.03;1.57;;;;;;;-1.16;83.45;102454.28;5060789;28;20216;-68
2023/04/03 04:25:17;;;;;;;4.90;1.60;;;;;;;-1.18;83.75;102449.88;5061266;28;20208;-69
2023/04/03 04:27:43;;;;;;;8.83;1.73;;;;;;;-1.18;83.53;102450.75;5059887;28;20296;-68
2023/04/03 04:30:11;;;;;;;4.30;1.70;;;;;;;-1.19;83.81;102461.19;5060627;28;20209;-69
2023/04/03 04:32:38;;;;;;;5.20;1.70;;;;;;;-1.22;84.24;102456.78;5064545;28;20727;-68
2023/04/03 04:35:05;;;;;;;5.00;1.90;;;;;;;-1.22;84.04;102458.53;5065164;28;20211;-68
2023/04/03 04:37:32;;;;;;;7.27;1.60;;;;;;;-1.23;84.50;102457.66;5058267;28;20310;-68
2023/04/03 04:39:58;;;;;;;2.40;1.70;;;;;;;-1.24;84.49;102465.47;5067620;28;20293;-69
2023/04/03 04:42:27;;;;;;;7.10;2.07;;;;;;;-1.25;84.79;102467.19;5066369;28;20212;-69
2023/04/03 04:44:53;;;;;;;4.20;2.03;;;;;;;-1.26;84.21;102464.59;5059610;28;20233;-69
2023/04/03 04:47:20;;;;;;;6.63;2.13;;;;;;;-1.28;84.51;102464.56;5057853;28;20227;-68
2023/04/03 04:49:47;;;;;;;4.03;2.00;;;;;;;-1.29;84.96;102461.94;5064361;28;20196;-70
2023/04/03 04:52:14;;;;;;;4.87;1.60;;;;;;;-1.29;84.57;102467.16;5060028;28;20679;-70
2023/04/03 04:54:40;;;;;;;6.17;2.53;;;;;;;-1.30;85.09;102466.28;5060232;28;20675;-71
2023/04/03 04:57:07;;;;;;;6.10;1.90;;;;;;;-1.32;84.90;102475.81;5060288;28;20240;-69
2023/04/03 04:59:35;;;;;;;4.57;1.93;;;;;;;-1.32;85.14;102477.56;5065026;28;20223;-69
2023/04/03 05:02:01;;;;;;;3.30;2.00;;;;;;;-1.33;85.33;102470.56;5061744;28;20200;-70
2023/04/03 05:04:28;;;;;;;4.60;2.27;;;;;;;-1.34;84.69;102479.28;5059067;28;20403;-70
2023/04/03 05:06:54;;;;;;;7.43;3.33;;;;;;;-1.35;85.05;102480.13;5060401;28;20248;-69
2023/04/03 05:09:22;;;;;;;4.90;2.00;;;;;;;-1.36;85.06;102475.75;5059135;28;20205;-71
2023/04/03 05:11:48;;;;;;;3.53;2.00;;;;;;;-1.38;85.29;102485.31;5062293;28;20204;-69
2023/04/03 05:14:15;;;;;;;5.90;2.10;;;;;;;-1.38;85.51;102487.91;5061762;28;20205;-69
2023/04/03 05:16:43;;;;;;;3.97;1.90;;;;;;;-1.40;85.36;102475.69;5060525;28;20232;-70
2023/04/03 05:19:09;;;;;;;4.13;1.83;;;;;;;-1.40;85.13;102480.94;5061341;28;20759;-70
2023/04/03 05:21:36;;;;;;;4.73;1.87;;;;;;;-1.41;85.62;102476.56;5063155;28;20217;-71
2023/04/03 05:24:03;;;;;;;5.47;2.00;;;;;;;-1.40;85.92;102486.16;5062022;28;20205;-70
2023/04/03 05:26:31;;;;;;;6.53;2.70;;;;;;;-1.37;85.75;102489.69;5061250;28;20315;-70
2023/04/03 05:28:58;;;;;;;4.17;2.47;;;;;;;-1.38;86.12;102494.03;5060816;28;20197;-70
2023/04/03 05:31:24;;;;;;;6.50;2.10;;;;;;;-1.36;86.26;102499.28;5060129;28;20581;-69
2023/04/03 05:33:52;;;;;;;5.90;2.50;;;;;;;-1.35;86.40;102503.66;5060769;28;20220;-69
2023/04/03 05:36:19;;;;;;;6.03;2.67;;;;;;;-1.33;86.74;102500.22;5057695;28;20241;-70
2023/04/03 05:38:46;;;;;;;5.83;2.40;;;;;;;-1.26;87.25;102506.41;5060790;28;20201;-70
2023/04/03 05:41:13;;;;;;;5.93;2.33;;;;;;;-1.19;87.08;102516.09;5061326;28;20304;-70
2023/04/03 05:43:39;;;;;;;5.20;2.37;;;;;;;-1.13;86.97;102517.06;5061388;28;20208;-69
2023/04/03 05:46:10;;;;;;;6.70;2.30;;;;;;;-1.07;87.12;102524.09;5062533;28;20902;-70
2023/04/03 05:48:37;;;;;;;5.67;2.20;;;;;;;-1.01;87.33;102518.97;5059259;28;20205;-70
2023/04/03 05:51:06;;;;;;;7.00;3.00;;;;;;;-0.94;88.06;102526.03;5057843;28;20205;-69
2023/04/03 05:53:36;;;;;;;4.87;2.40;;;;;;;-0.85;88.39;102530.50;5048314;28;20201;-70
2023/04/03 05:56:02;;;;;;;3.90;1.73;;;;;;;-0.78;89.02;102530.63;5054598;28;20236;-69
2023/04/03 05:58:29;;;;;;;4.87;1.77;;;;;;;-0.70;88.99;102526.34;5057003;28;20228;-70
2023/04/03 06:00:55;;;;;;;7.03;2.47;;;;;;;-0.61;89.30;102533.47;5057990;28;20258;-71
2023/04/03 06:03:22;;;;;;;8.47;2.10;;;;;;;-0.54;88.62;102534.41;5064209;28;20660;-70
2023/04/03 06:05:49;;;;;;;7.50;1.90;;;;;;;-0.49;88.63;102543.19;5061554;28;20201;-71
2023/04/03 06:08:17;;;;;;;3.67;1.60;;;;;;;-0.44;88.98;102547.63;5058692;28;20778;-71
2023/04/03 06:10:43;;;;;;;3.60;1.80;;;;;;;-0.41;88.78;102552.91;5058468;28;20205;-70
2023/04/03 06:13:10;;;;;;;5.43;2.07;;;;;;;-0.37;88.68;102554.72;5056169;28;20209;-71
2023/04/03 06:15:37;;;;;;;4.33;2.40;;;;;;;-0.30;88.55;102554.75;5053206;28;20835;-70
2023/04/03 06:18:05;;;;;;;4.27;2.00;;;;;;;-0.24;89.37;102553.09;5054710;28;20247;-69
2023/04/03 06:20:31;;;;;;;7.67;1.80;;;;;;;-0.16;89.05;102561.91;5048517;28;21423;-71
2023/04/03 06:22:58;;;;;;;7.00;1.63;;;;;;;-0.10;88.84;102558.47;5058801;28;20390;-72
2023/04/03 06:25:26;;;;;;;5.17;1.70;;;;;;;-0.03;88.89;102565.56;5059875;28;20288;-70
2023/04/03 06:27:55;;;;;;;6.57;1.87;;;;;;;0.05;88.61;102563.00;5058508;28;20290;-69
2023/04/03 06:30:22;;;;;;;4.53;1.80;;;;;;;0.11;88.81;102563.06;5056484;28;20882;-71
2023/04/03 06:32:49;;;;;;;5.50;1.63;;;;;;;0.17;88.70;102561.41;5056216;28;20197;-71
2023/04/03 06:35:16;;;;;;;4.83;1.90;;;;;;;0.24;88.49;102564.94;5059819;28;20221;-70
2023/04/03 06:37:43;;;;;;;5.07;1.90;;;;;;;0.30;88.38;102559.78;5061387;28;20263;-71
2023/04/03 06:40:21;;;;;;;5.07;2.37;;;;;;;0.40;88.44;102555.47;5059835;28;20251;-69
2023/04/03 06:42:49;;;;;;;5.77;2.10;;;;;;;0.49;88.42;102561.69;5057217;28;20246;-71
2023/04/03 06:45:16;;;;;;;18.03;2.83;;;;;;;0.56;87.96;102563.47;5066758;28;20236;-72
2023/04/03 06:47:44;;;;;;;5.33;2.03;;;;;;;0.64;87.85;102569.69;5056893;28;20317;-72
2023/04/03 06:50:14;;;;;;;4.80;1.83;;;;;;;0.72;87.22;102571.50;5052128;28;20220;-70
2023/04/03 06:52:41;;;;;;;4.03;1.70;;;;;;;0.82;86.85;102573.31;5043300;28;20292;-73
2023/04/03 06:55:09;;;;;;;7.33;2.57;;;;;;;0.89;86.75;102577.75;5050320;28;20213;-71
2023/04/03 06:57:37;;;;;;;6.07;1.97;;;;;;;0.95;86.10;102583.00;5056120;28;20290;-71
2023/04/03 07:00:06;;;;;;;4.60;1.83;;;;;;;1.02;85.65;102575.22;5058407;28;20208;-73
2023/04/03 07:02:33;;;;;;;5.23;1.80;;;;;;;1.10;85.25;102587.47;5053431;28;20200;-72
2023/04/03 07:04:59;;;;;;;4.57;2.10;;;;;;;1.16;84.83;102585.78;5056230;28;20339;-71
2023/04/03 07:07:26;;;;;;;6.73;1.90;;;;;;;1.23;83.98;102592.84;5060908;28;20740;-72
2023/04/03 07:09:52;;;;;;;4.10;2.43;;;;;;;1.30;84.26;102594.63;5064393;28;20602;-72
2023/04/03 07:12:19;;;;;;;8.27;1.83;;;;;;;1.41;83.49;102604.31;5059346;28;20402;-73
2023/04/03 07:14:45;;;;;;;5.23;1.57;;;;;;;1.51;83.70;102598.22;5060366;28;20205;-71
2023/04/03 07:17:13;;;;;;;3.27;1.70;;;;;;;1.57;83.10;102595.66;5061168;28;20233;-71
2023/04/03 07:19:40;;;;;;;6.10;2.73;;;;;;;1.63;82.21;102598.28;5057009;28;20681;-72
2023/04/03 07:22:06;;;;;;;7.67;1.90;;;;;;;1.70;81.78;102605.31;5067524;28;20219;-72
2023/04/03 07:24:33;;;;;;;3.10;1.80;;;;;;;1.76;81.50;102607.09;5066065;28;20209;-71
2023/04/03 07:26:59;;;;;;;5.63;1.50;;;;;;;1.84;81.61;102608.88;5074750;28;20723;-72
2023/04/03 07:29:25;;;;;;;5.60;1.90;;;;;;;1.92;80.60;102607.19;5066542;28;20201;-72
2023/04/03 07:31:52;;;;;;;3.63;1.60;;;;;;;2.03;80.91;102607.19;5066768;28;20200;-72
2023/04/03 07:34:20;;;;;;;4.27;1.73;;;;;;;2.15;80.97;102609.00;5065561;28;20221;-72
2023/04/03 07:36:46;;;;;;;4.23;1.60;;;;;;;2.25;80.23;102610.75;5065244;28;20532;-72
2023/04/03 07:39:13;;;;;;;4.40;1.93;;;;;;;2.36;79.75;102622.16;5061714;28;20201;-72
2023/04/03 07:41:39;;;;;;;5.97;1.73;;;;;;;2.43;78.53;102618.69;5066488;28;20209;-71
2023/04/03 07:44:06;;;;;;;3.73;1.83;;;;;;;2.50;78.35;102612.56;5064558;28;20197;-72
2023/04/03 07:46:33;;;;;;;4.73;1.60;;;;;;;2.60;77.81;102614.31;5070529;28;20220;-73
2023/04/03 07:48:59;;;;;;;5.87;1.70;;;;;;;2.70;77.57;102612.56;5071192;28;20659;-72
2023/04/03 07:51:28;;;;;;;4.40;1.87;;;;;;;2.77;76.82;102611.69;5062144;28;20205;-72
2023/04/03 07:53:54;;;;;;;6.30;1.77;;;;;;;2.87;76.84;102609.94;5065117;28;20200;-72
2023/04/03 07:56:21;;;;;;;4.33;1.60;;;;;;;2.99;75.99;102607.31;5060690;28;20512;-72
2023/04/03 07:58:47;;;;;;;5.73;1.70;;;;;;;3.11;74.98;102604.66;5070942;28;20248;-71
2023/04/03 08:01:14;;;;;;;6.87;1.50;;;;;;;3.22;75.01;102612.56;5063341;28;20207;-72
2023/04/03 08:03:40;;;;;;;3.33;1.30;;;;;;;3.34;74.62;102608.13;5065794;28;20201;-71
2023/04/03 08:06:08;;;;;;;5.43;1.90;;;;;;;3.45;74.55;102611.59;5064196;28;20233;-74
2023/04/03 08:08:36;;;;;;;3.47;1.50;;;;;;;3.59;73.97;102608.03;5065466;28;20197;-72
2023/04/03 08:11:05;;;;;;;5.10;1.20;;;;;;;3.69;72.28;102613.28;5065252;28;20223;-72
2023/04/03 08:13:32;;;;;;;5.67;1.63;;;;;;;3.79;72.19;102609.72;5066652;28;20634;-73
2023/04/03 08:15:58;;;;;;;5.50;1.60;;;;;;;3.89;71.53;102613.22;5061138;28;20233;-72
2023/04/03 08:18:26;;;;;;;6.40;1.67;;;;;;;3.96;71.28;102604.38;5067753;28;20231;-72
2023/04/03 08:20:52;;;;;;;2.70;1.37;;;;;;;4.08;70.64;102619.28;5059916;28;20233;-72
2023/04/03 08:23:19;;;;;;;2.43;1.27;;;;;;;4.15;70.23;102613.94;5059768;28;20684;-73
2023/04/03 08:25:47;;;;;;;2.90;1.20;;;;;;;4.30;70.18;102618.25;5058917;28;20207;-72
2023/04/03 08:28:14;;;;;;;5.97;1.97;;;;;;;4.40;68.86;102606.75;5063149;28;20590;-72
2023/04/03 08:30:42;;;;;;;1.80;1.03;;;;;;;4.52;68.73;102609.31;5062172;28;20285;-72
2023/04/03 08:33:09;;;;;;;2.13;1.13;;;;;;;4.66;68.64;102603.91;5064505;28;21487;-72
2023/04/03 08:35:40;;;;;;;5.27;1.83;;;;;;;4.83;68.75;102601.19;5064065;28;20208;-71
2023/04/03 08:38:07;;;;;;;2.67;1.13;;;;;;;4.95;68.14;102601.06;5064408;28;20233;-71
2023/04/03 08:40:33;;;;;;;3.83;1.40;;;;;;;5.07;67.73;102600.94;5063440;28;20212;-72
2023/04/03 08:43:17;;;;;;;4.40;1.20;;;;;;;5.17;66.56;102596.44;5064920;28;20204;-73
2023/04/03 08:45:47;;;;;;;4.80;1.10;;;;;;;5.30;65.63;102592.78;5064617;28;20204;-72
2023/04/03 08:48:17;;;;;;;3.73;1.07;;;;;;;5.37;65.23;102588.31;5063616;28;20197;-73
2023/04/03 08:50:46;;;;;;;4.90;1.13;;;;;;;5.50;65.11;102588.16;5065168;28;20205;-72
2023/04/03 08:53:16;;;;;;;3.17;1.17;;;;;;;5.58;64.01;102594.22;5062112;28;20204;-72
2023/04/03 08:55:46;;;;;;;3.27;0.87;;;;;;;5.72;64.22;102588.78;5065506;28;20205;-72
2023/04/03 08:58:17;;;;;;;3.30;1.00;;;;;;;5.85;63.44;102594.78;5060465;28;20224;-74
2023/04/03 09:00:47;;;;;;;3.87;1.00;;;;;;;5.92;61.81;102586.75;5064863;28;20760;-73
2023/04/03 09:03:15;;;;;;;2.40;0.63;;;;;;;6.03;61.21;102591.94;5064079;28;20204;-72
2023/04/03 09:05:48;;;;;;;3.03;0.73;;;;;;;6.13;61.01;102590.03;5064353;28;20693;-72
2023/04/03 09:08:23;;;;;;;2.30;0.80;;;;;;;6.22;59.73;102588.13;5061147;28;20396;-72
2023/04/03 09:10:53;;;;;;;2.13;1.17;;;;;;;6.27;58.85;102591.56;5063309;28;20224;-72
2023/04/03 09:13:29;;;;;;;2.03;0.77;;;;;;;6.37;59.23;102586.16;5063830;28;20215;-73
2023/04/03 09:15:57;;;;;;;3.40;0.73;;;;;;;6.43;57.43;102583.44;5064445;28;20235;-72
2023/04/03 09:18:29;;;;;;;1.87;0.60;;;;;;;6.37;55.83;102591.44;5064096;28;20217;-73
2023/04/03 09:21:03;;;;;;;1.93;0.80;;;;;;;6.25;56.17;102592.50;5068117;28;20212;-72
2023/04/03 09:23:35;;;;;;;1.83;0.73;;;;;;;6.19;55.68;102590.81;5063376;28;20213;-72
2023/04/03 09:26:06;;;;;;;4.37;0.73;;;;;;;6.10;54.87;102583.00;5064399;28;20232;-72
2023/04/03 09:28:39;;;;;;;2.93;0.90;;;;;;;6.01;54.43;102590.19;5052954;28;20200;-74
2023/04/03 09:31:19;;;;;;;2.47;0.97;;;;;;;5.95;54.25;102583.22;5054453;28;20287;-72
2023/04/03 09:33:46;;;;;;;2.57;0.70;;;;;;;5.84;53.91;102580.69;5068527;28;20200;-74
2023/04/03 09:36:13;;;;;;;4.37;1.07;;;;;;;5.85;53.92;102577.16;5054900;28;20237;-72
2023/04/03 09:38:40;;;;;;;1.40;0.70;;;;;;;5.89;54.10;102578.91;5057162;28;20642;-72
2023/04/03 09:41:14;;;;;;;2.70;0.70;;;;;;;6.01;54.46;102577.84;5052188;28;20216;-72
2023/04/03 09:43:53;;;;;;;2.90;0.87;;;;;;;6.14;53.96;102578.53;5061102;28;20201;-72
2023/04/03 09:46:29;;;;;;;2.57;0.87;;;;;;;6.21;52.64;102574.94;5057604;28;20240;-70
2023/04/03 09:48:58;;;;;;;2.13;0.70;;;;;;;6.31;53.67;102559.78;5055568;28;20205;-73
2023/04/03 09:51:28;;;;;;;2.70;0.90;;;;;;;6.36;52.61;102555.28;5050538;28;20236;-72
2023/04/03 09:53:55;;;;;;;1.77;0.80;;;;;;;6.38;52.10;102553.50;5054962;28;20301;-71
2023/04/03 09:56:25;;;;;;;3.17;1.00;;;;;;;6.46;53.00;102541.88;5056359;28;20236;-71
2023/04/03 09:59:08;;;;;;;1.30;0.60;;;;;;;6.67;54.04;102548.59;5054230;28;20217;-71
2023/04/03 10:01:36;;;;;;;4.23;0.77;;;;;;;6.85;52.72;102545.63;5055940;28;20207;-70
2023/04/03 10:04:09;;;;;;;2.00;0.80;;;;;;;7.02;52.00;102541.78;5054649;28;20555;-72
2023/04/03 10:06:40;;;;;;;2.97;1.10;;;;;;;7.17;52.19;102545.03;5056781;28;20229;-71
2023/04/03 10:09:19;;;;;;;2.60;0.80;;;;;;;7.27;51.33;102540.44;5058504;28;20213;-70
2023/04/03 10:12:00;;;;;;;2.47;0.80;;;;;;;7.23;50.35;102542.28;5055061;28;20205;-73
2023/04/03 10:14:28;;;;;;;4.07;0.90;;;;;;;7.26;50.33;102531.63;5059308;28;20205;-72
2023/04/03 10:17:06;;;;;;;1.40;0.47;;;;;;;7.34;50.15;102541.22;5059998;28;20220;-72
2023/04/03 10:19:37;;;;;;;1.90;0.63;;;;;;;7.43;49.78;102523.31;5054120;28;20715;-72
2023/04/03 10:22:14;;;;;;;1.77;0.50;;;;;;;7.40;47.06;102520.72;5060902;28;20200;-71
2023/04/03 10:24:49;;;;;;;1.93;0.70;;;;;;;7.32;47.16;102530.63;5060549;28;20745;-72
2023/04/03 10:27:25;;;;;;;2.70;0.83;;;;;;;7.25;47.21;102529.88;5055823;28;20256;-72
2023/04/03 10:29:59;;;;;;;2.07;1.10;;;;;;;7.24;47.69;102533.41;5059630;28;20634;-74
2023/04/03 10:32:41;;;;;;;1.97;0.50;;;;;;;7.23;46.41;102528.16;5052583;28;20852;-73
2023/04/03 10:35:17;;;;;;;1.73;0.60;;;;;;;7.20;45.93;102522.91;5059560;28;20692;-72
2023/04/03 10:37:59;;;;;;;1.97;0.70;;;;;;;7.14;46.32;102521.25;5060802;28;20703;-71
2023/04/03 10:40:35;;;;;;;1.23;0.50;;;;;;;7.06;45.05;102523.19;5058639;28;20304;-71
2023/04/03 10:43:10;;;;;;;1.73;0.60;;;;;;;7.12;45.93;102514.25;5060279;28;20706;-71
2023/04/03 10:46:01;;;;;;;3.50;0.60;;;;;;;7.27;46.99;102521.88;5059340;28;20226;-72
2023/04/03 10:48:41;;;;;;;2.33;0.70;;;;;;;7.47;47.62;102518.84;5054240;28;20829;-72
2023/04/03 10:51:19;;;;;;;1.23;0.53;;;;;;;7.64;47.38;102514.94;5059740;28;20216;-72
2023/04/03 10:53:56;;;;;;;2.17;0.70;;;;;;;7.82;47.58;102508.34;5057026;28;20755;-73
2023/04/03 10:56:31;;;;;;;2.63;0.70;;;;;;;7.94;47.19;102502.75;5060259;28;20758;-71
2023/04/03 10:59:15;;;;;;;2.20;0.67;;;;;;;8.05;45.54;102505.19;5059710;28;20228;-72
2023/04/03 11:01:45;;;;;;;1.80;0.90;;;;;;;8.08;44.79;102504.19;5066019;28;20236;-73
2023/04/03 11:04:13;;;;;;;2.30;0.60;;;;;;;8.02;44.63;102497.28;5064839;28;20208;-71
2023/04/03 11:06:44;;;;;;;2.03;0.93;;;;;;;7.94;43.60;102507.19;5064977;28;20232;-72
2023/04/03 11:09:20;;;;;;;3.50;0.80;;;;;;;7.86;44.14;102493.25;5063588;28;20246;-72
2023/04/03 11:11:49;;;;;;;3.17;1.40;;;;;;;7.84;43.99;102497.69;5066937;28;21682;-72
2023/04/03 11:14:22;;;;;;;1.50;0.67;;;;;;;7.83;44.48;102488.00;5063184;28;20200;-71
2023/04/03 11:17:00;;;;;;;6.90;1.40;;;;;;;7.86;44.04;102487.94;5058070;28;20908;-72
2023/04/03 11:19:36;;;;;;;1.90;0.80;;;;;;;7.86;45.11;102486.16;5062780;28;20247;-71
2023/04/03 11:22:09;;;;;;;2.17;0.60;;;;;;;7.79;44.41;102475.69;5065101;28;20208;-70
2023/04/03 11:24:39;;;;;;;1.80;0.70;;;;;;;7.70;44.33;102486.53;5064141;28;20212;-71
2023/04/03 11:27:10;;;;;;;4.30;1.07;;;;;;;7.62;44.11;102487.56;5065142;28;20759;-71
2023/04/03 11:29:42;;;;;;;2.07;0.57;;;;;;;7.58;45.05;102485.00;5065636;28;20206;-70
2023/04/03 11:32:28;;;;;;;1.77;0.77;;;;;;;7.51;45.53;102492.25;5066743;28;20212;-70
2023/04/03 11:34:58;;;;;;;1.83;0.60;;;;;;;7.45;44.95;102486.19;5065867;28;20213;-70
2023/04/03 11:37:32;;;;;;;2.23;0.60;;;;;;;7.39;46.21;102483.66;5062180;28;20221;-72